createdAt,value
2023-04-08T00:00:20.797Z,98.50
2023-04-08T00:02:48.624Z,98.83
2023-04-08T00:05:17.655Z,98.53
2023-04-08T00:07:45.483Z,98.07
2023-04-08T00:10:13.108Z,98.76
2023-04-08T00:12:40.873Z,98.03
2023-04-08T00:15:08.883Z,97.46
2023-04-08T00:17:36.766Z,97.00
2023-04-08T00:20:05.734Z,96.39
2023-04-08T00:22:34.708Z,96.24
2023-04-08T00:25:02.864Z,96.44
2023-04-08T00:27:30.466Z,96.96
2023-04-08T00:30:00.055Z,96.99
2023-04-08T00:32:28.347Z,96.89
2023-04-08T00:34:56.336Z,97.36
2023-04-08T00:37:24.966Z,97.86
2023-04-08T00:39:54.242Z,97.09
2023-04-08T00:42:22.154Z,97.39
2023-04-08T00:44:49.838Z,97.20
2023-04-08T00:47:17.644Z,97.26
2023-04-08T00:49:45.482Z,97.41
2023-04-08T00:52:13.119Z,97.52
2023-04-08T00:54:40.892Z,97.71
2023-04-08T00:57:09.881Z,98.08
2023-04-08T00:59:37.720Z,98.30
2023-04-08T01:02:13.801Z,98.32
2023-04-08T01:04:46.153Z,98.25
2023-04-08T01:07:16.819Z,99.60
2023-04-08T01:09:47.115Z,99.58
2023-04-08T01:12:19.711Z,100.00
2023-04-08T01:14:48.210Z,100.00
2023-04-08T01:17:16.387Z,100.00
2023-04-08T01:19:44.867Z,100.00
2023-04-08T01:22:18.515Z,100.00
2023-04-08T01:24:46.766Z,100.00
2023-04-08T01:27:16.231Z,100.00
2023-04-08T01:29:44.655Z,100.00
2023-04-08T01:32:13.464Z,100.00
2023-04-08T01:34:41.970Z,100.00
2023-04-08T01:37:09.948Z,100.00
2023-04-08T01:39:38.346Z,100.00
2023-04-08T01:42:06.171Z,100.00
2023-04-08T01:44:36.310Z,100.00
2023-04-08T01:47:04.677Z,100.00
2023-04-08T01:49:32.602Z,100.00
2023-04-08T01:52:01.592Z,100.00
2023-04-08T01:54:29.242Z,100.00
2023-04-08T01:56:58.454Z,100.00
2023-04-08T01:59:31.225Z,100.00
2023-04-08T02:02:00.640Z,100.00
2023-04-08T02:04:28.611Z,100.00
2023-04-08T02:06:57.206Z,100.00
2023-04-08T02:09:26.210Z,100.00
2023-04-08T02:11:53.929Z,100.00
2023-04-08T02:14:23.209Z,100.00
2023-04-08T02:16:54.802Z,100.00
2023-04-08T02:19:27.168Z,100.00
2023-04-08T02:21:58.696Z,100.00
2023-04-08T02:24:27.298Z,100.00
2023-04-08T02:26:56.342Z,100.00
2023-04-08T02:29:25.152Z,100.00
2023-04-08T02:31:53.241Z,100.00
2023-04-08T02:34:22.661Z,100.00
2023-04-08T02:36:52.208Z,100.00
2023-04-08T02:39:22.371Z,100.00
2023-04-08T02:41:50.070Z,100.00
2023-04-08T02:44:17.655Z,100.00
2023-04-08T02:46:45.340Z,100.00
2023-04-08T02:49:13.125Z,100.00
2023-04-08T02:51:41.043Z,100.00
2023-04-08T02:54:09.996Z,100.00
2023-04-08T02:56:37.561Z,100.00
2023-04-08T02:59:05.453Z,100.00
2023-04-08T03:01:33.074Z,100.00
2023-04-08T03:04:00.799Z,100.00
2023-04-08T03:06:28.387Z,100.00
2023-04-08T03:08:55.923Z,100.00
2023-04-08T03:11:24.926Z,100.00
2023-04-08T03:13:52.475Z,100.00
2023-04-08T03:16:20.085Z,100.00
2023-04-08T03:18:47.748Z,100.00
2023-04-08T03:21:15.798Z,100.00
2023-04-08T03:23:43.460Z,100.00
2023-04-08T03:26:11.083Z,100.00
2023-04-08T03:28:40.520Z,100.00
2023-04-08T03:31:08.413Z,100.00
2023-04-08T03:33:36.492Z,100.00
2023-04-08T03:36:04.287Z,100.00
2023-04-08T03:38:32.190Z,100.00
2023-04-08T03:40:59.885Z,100.00
2023-04-08T03:43:27.975Z,100.00
2023-04-08T03:45:57.335Z,100.00
2023-04-08T03:48:25.038Z,100.00
2023-04-08T03:50:52.809Z,100.00
2023-04-08T03:53:20.782Z,100.00
2023-04-08T03:55:50.597Z,100.00
2023-04-08T03:58:19.479Z,100.00
2023-04-08T04:00:47.216Z,100.00
2023-04-08T04:03:16.518Z,100.00
2023-04-08T04:05:44.327Z,100.00
2023-04-08T04:08:12.088Z,100.00
2023-04-08T04:10:39.863Z,100.00
2023-04-08T04:13:07.955Z,100.00
2023-04-08T04:15:39.557Z,100.00
2023-04-08T04:18:07.449Z,100.00
2023-04-08T04:20:38.207Z,100.00
2023-04-08T04:23:05.788Z,100.00
2023-04-08T04:25:33.364Z,100.00
2023-04-08T04:28:01.727Z,100.00
2023-04-08T04:30:29.663Z,100.00
2023-04-08T04:32:57.646Z,100.00
2023-04-08T04:35:25.385Z,100.00
2023-04-08T04:37:54.318Z,100.00
2023-04-08T04:40:21.912Z,100.00
2023-04-08T04:42:49.871Z,100.00
2023-04-08T04:45:17.615Z,100.00
2023-04-08T04:47:45.358Z,100.00
2023-04-08T04:50:12.983Z,100.00
2023-04-08T04:52:41.458Z,100.00
2023-04-08T04:55:11.026Z,100.00
2023-04-08T04:57:38.585Z,100.00
2023-04-08T05:00:08.305Z,100.00
2023-04-08T05:02:36.129Z,100.00
2023-04-08T05:05:04.018Z,100.00
2023-04-08T05:07:31.878Z,100.00
2023-04-08T05:09:59.481Z,100.00
2023-04-08T05:12:29.275Z,100.00
2023-04-08T05:14:56.866Z,100.00
2023-04-08T05:17:24.410Z,100.00
2023-04-08T05:19:52.050Z,100.00
2023-04-08T05:22:19.643Z,100.00
2023-04-08T05:24:47.205Z,100.00
2023-04-08T05:27:14.785Z,100.00
2023-04-08T05:29:44.276Z,100.00
2023-04-08T05:32:11.876Z,100.00
2023-04-08T05:34:39.544Z,100.00
2023-04-08T05:37:07.151Z,100.00
2023-04-08T05:39:34.744Z,100.00
2023-04-08T05:42:02.379Z,100.00
2023-04-08T05:44:29.942Z,100.00
2023-04-08T05:47:00.293Z,100.00
2023-04-08T05:49:28.214Z,100.00
2023-04-08T05:51:56.090Z,100.00
2023-04-08T05:54:23.666Z,100.00
2023-04-08T05:56:51.314Z,100.00
2023-04-08T05:59:18.916Z,100.00
2023-04-08T06:01:46.560Z,100.00
2023-04-08T06:04:17.597Z,100.00
2023-04-08T06:06:45.753Z,100.00
2023-04-08T06:09:13.508Z,100.00
2023-04-08T06:11:41.233Z,100.00
2023-04-08T06:14:08.870Z,100.00
2023-04-08T06:16:36.474Z,100.00
2023-04-08T06:19:10.218Z,100.00
2023-04-08T06:21:39.193Z,100.00
2023-04-08T06:24:07.266Z,100.00
2023-04-08T06:26:34.866Z,100.00
2023-04-08T06:29:03.253Z,100.00
2023-04-08T06:31:30.854Z,100.00
2023-04-08T06:33:59.271Z,100.00
2023-04-08T06:36:28.290Z,100.00
2023-04-08T06:38:57.221Z,100.00
2023-04-08T06:41:24.760Z,100.00
2023-04-08T06:43:52.315Z,100.00
2023-04-08T06:46:19.943Z,100.00
2023-04-08T06:48:47.485Z,100.00
2023-04-08T06:51:15.141Z,100.00
2023-04-08T06:53:42.701Z,100.00
2023-04-08T06:56:11.600Z,100.00
2023-04-08T06:58:39.329Z,100.00
2023-04-08T07:01:07.111Z,100.00
2023-04-08T07:03:34.759Z,100.00
2023-04-08T07:06:04.630Z,100.00
2023-04-08T07:08:32.262Z,100.00
2023-04-08T07:10:59.906Z,100.00
2023-04-08T07:13:29.420Z,100.00
2023-04-08T07:15:57.090Z,100.00
2023-04-08T07:18:26.197Z,100.00
2023-04-08T07:20:54.607Z,100.00
2023-04-08T07:23:22.793Z,100.00
2023-04-08T07:25:50.368Z,100.00
2023-04-08T07:28:17.986Z,100.00
2023-04-08T07:30:47.070Z,100.00
2023-04-08T07:33:15.812Z,100.00
2023-04-08T07:35:43.470Z,100.00
2023-04-08T07:38:12.015Z,100.00
2023-04-08T07:40:39.647Z,100.00
2023-04-08T07:43:09.072Z,100.00
2023-04-08T07:45:36.628Z,100.00
2023-04-08T07:48:05.957Z,100.00
2023-04-08T07:50:33.598Z,100.00
2023-04-08T07:53:01.164Z,100.00
2023-04-08T07:55:28.734Z,100.00
2023-04-08T07:57:56.437Z,100.00
2023-04-08T08:00:24.413Z,100.00
2023-04-08T08:02:52.332Z,100.00
2023-04-08T08:05:21.715Z,100.00
2023-04-08T08:07:50.467Z,100.00
2023-04-08T08:10:18.087Z,100.00
2023-04-08T08:12:45.703Z,100.00
2023-04-08T08:15:13.553Z,100.00
2023-04-08T08:17:41.352Z,100.00
2023-04-08T08:20:10.643Z,100.00
2023-04-08T08:22:50.838Z,100.00
2023-04-08T08:25:26.084Z,100.00
2023-04-08T08:27:55.376Z,100.00
2023-04-08T08:30:23.027Z,100.00
2023-04-08T08:32:52.083Z,100.00
2023-04-08T08:35:19.719Z,100.00
2023-04-08T08:37:48.990Z,100.00
2023-04-08T08:40:16.720Z,100.00
2023-04-08T08:42:51.433Z,100.00
2023-04-08T08:45:19.507Z,100.00
2023-04-08T08:47:49.703Z,100.00
2023-04-08T08:50:18.675Z,100.00
2023-04-08T08:52:51.370Z,100.00
2023-04-08T08:55:35.051Z,100.00
2023-04-08T08:58:08.665Z,100.00
2023-04-08T09:00:37.697Z,100.00
2023-04-08T09:03:18.943Z,100.00
2023-04-08T09:05:51.429Z,100.00
2023-04-08T09:08:27.618Z,100.00
2023-04-08T09:10:55.295Z,100.00
2023-04-08T09:13:23.495Z,100.00
2023-04-08T09:16:05.083Z,100.00
2023-04-08T09:18:33.231Z,100.00
2023-04-08T09:21:02.211Z,100.00
2023-04-08T09:23:41.745Z,100.00
2023-04-08T09:26:10.782Z,100.00
2023-04-08T09:28:39.136Z,100.00
2023-04-08T09:31:22.464Z,100.00
2023-04-08T09:33:50.551Z,100.00
2023-04-08T09:36:18.414Z,100.00
2023-04-08T09:38:48.137Z,100.00
2023-04-08T09:41:16.716Z,100.00
2023-04-08T09:43:49.408Z,100.00
2023-04-08T09:46:19.237Z,100.00
2023-04-08T09:49:03.778Z,100.00
2023-04-08T09:51:35.150Z,100.00
2023-04-08T09:54:04.952Z,100.00
2023-04-08T09:56:40.823Z,100.00
2023-04-08T09:59:12.253Z,100.00
2023-04-08T10:01:41.407Z,100.00
2023-04-08T10:04:11.202Z,100.00
2023-04-08T10:06:39.535Z,100.00
2023-04-08T10:09:08.789Z,100.00
2023-04-08T10:11:37.167Z,100.00
2023-04-08T10:14:04.817Z,100.00
2023-04-08T10:16:32.609Z,100.00
2023-04-08T10:19:00.233Z,100.00
2023-04-08T10:21:43.318Z,100.00
2023-04-08T10:24:12.578Z,100.00
2023-04-08T10:26:41.877Z,100.00
2023-04-08T10:29:33.828Z,100.00
2023-04-08T10:32:02.852Z,100.00
2023-04-08T10:34:30.918Z,100.00
2023-04-08T10:37:02.011Z,100.00
2023-04-08T10:39:32.380Z,100.00
2023-04-08T10:42:02.655Z,100.00
2023-04-08T10:44:30.241Z,100.00
2023-04-08T10:46:58.074Z,100.00
2023-04-08T10:49:34.167Z,100.00
2023-04-08T10:52:02.242Z,100.00
2023-04-08T10:54:31.151Z,100.00
2023-04-08T10:56:59.852Z,100.00
2023-04-08T10:59:32.151Z,100.00
2023-04-08T11:02:00.470Z,100.00
2023-04-08T11:04:28.391Z,100.00
2023-04-08T11:06:56.072Z,100.00
2023-04-08T11:09:23.653Z,100.00
2023-04-08T11:11:53.646Z,100.00
2023-04-08T11:14:22.457Z,100.00
2023-04-08T11:16:50.295Z,100.00
2023-04-08T11:19:18.059Z,100.00
2023-04-08T11:21:45.633Z,100.00
2023-04-08T11:24:14.526Z,100.00
2023-04-08T11:26:42.720Z,100.00
2023-04-08T11:29:14.267Z,100.00
2023-04-08T11:31:42.757Z,100.00
2023-04-08T11:34:10.755Z,100.00
2023-04-08T11:36:41.624Z,100.00
2023-04-08T11:39:11.568Z,100.00
2023-04-08T11:41:40.374Z,100.00
2023-04-08T11:44:08.303Z,100.00
2023-04-08T11:46:37.705Z,100.00
2023-04-08T11:49:07.675Z,100.00
2023-04-08T11:51:37.840Z,100.00
2023-04-08T11:54:06.537Z,100.00
2023-04-08T11:56:45.793Z,100.00
2023-04-08T11:59:13.364Z,100.00
2023-04-08T12:01:42.244Z,100.00
2023-04-08T12:04:12.743Z,100.00
2023-04-08T12:06:43.434Z,100.00
2023-04-08T12:09:11.122Z,100.00
2023-04-08T12:11:38.648Z,100.00
2023-04-08T12:14:06.203Z,100.00
2023-04-08T12:16:33.863Z,100.00
2023-04-08T12:19:02.795Z,100.00
2023-04-08T12:21:30.473Z,100.00
2023-04-08T12:23:58.033Z,100.00
2023-04-08T12:26:25.640Z,100.00
2023-04-08T12:28:53.231Z,100.00
2023-04-08T12:31:21.630Z,100.00
2023-04-08T12:33:49.414Z,100.00
2023-04-08T12:36:18.464Z,100.00
2023-04-08T12:38:46.034Z,100.00
2023-04-08T12:41:13.728Z,100.00
2023-04-08T12:43:41.616Z,100.00
2023-04-08T12:46:09.178Z,100.00
2023-04-08T12:48:36.768Z,100.00
2023-04-08T12:51:04.358Z,100.00
2023-04-08T12:53:33.277Z,100.00
2023-04-08T12:56:00.920Z,100.00
2023-04-08T12:58:28.483Z,100.00
2023-04-08T13:00:56.128Z,100.00
2023-04-08T13:03:23.959Z,100.00
2023-04-08T13:05:51.845Z,100.00
2023-04-08T13:08:19.372Z,100.00
2023-04-08T13:10:48.457Z,100.00
2023-04-08T13:13:16.006Z,100.00
2023-04-08T13:15:44.092Z,100.00
2023-04-08T13:18:16.529Z,100.00
2023-04-08T13:20:44.111Z,100.00
2023-04-08T13:23:11.902Z,100.00
2023-04-08T13:25:39.497Z,100.00
2023-04-08T13:28:08.711Z,100.00
2023-04-08T13:30:39.010Z,100.00
2023-04-08T13:33:06.783Z,100.00
2023-04-08T13:35:34.403Z,100.00
2023-04-08T13:38:02.023Z,100.00
2023-04-08T13:40:30.128Z,100.00
2023-04-08T13:42:57.909Z,100.00
2023-04-08T13:45:26.991Z,100.00
2023-04-08T13:47:54.587Z,100.00
2023-04-08T13:50:22.231Z,100.00
2023-04-08T13:52:50.039Z,100.00
2023-04-08T13:55:17.964Z,100.00
2023-04-08T13:57:45.545Z,100.00
2023-04-08T14:00:14.375Z,100.00
2023-04-08T14:02:43.338Z,100.00
2023-04-08T14:05:11.073Z,100.00
2023-04-08T14:07:38.669Z,100.00
2023-04-08T14:10:08.584Z,100.00
2023-04-08T14:12:36.185Z,100.00
2023-04-08T14:15:03.815Z,100.00
2023-04-08T14:17:32.001Z,100.00
2023-04-08T14:20:01.153Z,100.00
2023-04-08T14:22:28.769Z,100.00
2023-04-08T14:24:56.306Z,100.00
2023-04-08T14:27:23.867Z,100.00
2023-04-08T14:29:51.440Z,100.00
2023-04-08T14:32:19.024Z,100.00
2023-04-08T14:34:46.552Z,100.00
2023-04-08T14:37:17.739Z,100.00
2023-04-08T14:39:45.982Z,100.00
2023-04-08T14:42:15.820Z,100.00
2023-04-08T14:44:44.140Z,100.00
2023-04-08T14:47:12.206Z,100.00
2023-04-08T14:49:39.767Z,100.00
2023-04-08T14:52:07.422Z,100.00
2023-04-08T14:54:36.411Z,100.00
2023-04-08T14:57:04.046Z,100.00
2023-04-08T14:59:31.631Z,100.00
2023-04-08T15:01:59.362Z,100.00
2023-04-08T15:04:27.053Z,100.00
2023-04-08T15:06:54.613Z,100.00
2023-04-08T15:09:22.527Z,100.00
2023-04-08T15:11:51.408Z,100.00
2023-04-08T15:14:19.145Z,100.00
2023-04-08T15:16:46.738Z,100.00
2023-04-08T15:19:15.037Z,100.00
2023-04-08T15:21:42.614Z,100.00
2023-04-08T15:24:10.398Z,100.00
2023-04-08T15:26:37.945Z,100.00
2023-04-08T15:29:06.923Z,100.00
2023-04-08T15:31:34.969Z,100.00
2023-04-08T15:34:03.726Z,100.00
2023-04-08T15:36:31.540Z,100.00
2023-04-08T15:38:59.111Z,100.00
2023-04-08T15:41:27.142Z,100.00
2023-04-08T15:43:54.992Z,100.00
2023-04-08T15:46:24.227Z,100.00
2023-04-08T15:48:52.334Z,100.00
2023-04-08T15:51:20.550Z,100.00
2023-04-08T15:53:50.380Z,100.00
2023-04-08T15:56:18.361Z,100.00
2023-04-08T15:58:46.669Z,100.00
2023-04-08T16:01:14.397Z,100.00
2023-04-08T16:03:43.679Z,100.00
2023-04-08T16:06:11.533Z,100.00
2023-04-08T16:08:39.267Z,100.00
2023-04-08T16:11:08.209Z,100.00
2023-04-08T16:13:39.076Z,100.00
2023-04-08T16:16:08.769Z,100.00
2023-04-08T16:18:36.723Z,100.00
2023-04-08T16:21:07.207Z,100.00
2023-04-08T16:23:37.518Z,100.00
2023-04-08T16:26:05.704Z,100.00
2023-04-08T16:28:33.805Z,100.00
2023-04-08T16:31:01.900Z,100.00
2023-04-08T16:33:30.830Z,100.00
2023-04-08T16:35:58.770Z,100.00
2023-04-08T16:38:28.319Z,100.00
2023-04-08T16:40:58.559Z,100.00
2023-04-08T16:43:27.286Z,100.00
2023-04-08T16:45:55.067Z,100.00
2023-04-08T16:48:23.175Z,100.00
2023-04-08T16:50:50.864Z,100.00
2023-04-08T16:53:18.608Z,100.00
2023-04-08T16:55:47.608Z,100.00
2023-04-08T16:58:15.180Z,100.00
2023-04-08T17:00:42.909Z,100.00
2023-04-08T17:03:11.182Z,100.00
2023-04-08T17:05:39.341Z,100.00
2023-04-08T17:08:07.332Z,100.00
2023-04-08T17:10:34.927Z,100.00
2023-04-08T17:13:05.278Z,100.00
2023-04-08T17:15:33.137Z,100.00
2023-04-08T17:18:01.097Z,100.00
2023-04-08T17:20:29.047Z,100.00
2023-04-08T17:22:56.998Z,100.00
2023-04-08T17:25:24.975Z,100.00
2023-04-08T17:27:52.913Z,100.00
2023-04-08T17:30:22.134Z,100.00
2023-04-08T17:32:50.182Z,100.00
2023-04-08T17:35:18.281Z,100.00
2023-04-08T17:37:45.828Z,100.00
2023-04-08T17:40:13.629Z,100.00
2023-04-08T17:42:41.246Z,100.00
2023-04-08T17:45:10.698Z,100.00
2023-04-08T17:47:39.793Z,100.00
2023-04-08T17:50:11.568Z,100.00
2023-04-08T17:52:39.600Z,100.00
2023-04-08T17:55:08.643Z,100.00
2023-04-08T17:57:36.206Z,100.00
2023-04-08T18:00:03.926Z,100.00
2023-04-08T18:02:31.872Z,100.00
2023-04-08T18:05:01.856Z,100.00
2023-04-08T18:07:29.383Z,100.00
2023-04-08T18:09:57.369Z,100.00
2023-04-08T18:12:26.166Z,100.00
2023-04-08T18:14:53.757Z,100.00
2023-04-08T18:17:21.321Z,100.00
2023-04-08T18:19:48.964Z,100.00
2023-04-08T18:22:17.901Z,100.00
2023-04-08T18:24:45.528Z,100.00
2023-04-08T18:27:13.655Z,100.00
2023-04-08T18:29:41.194Z,100.00
2023-04-08T18:32:08.746Z,100.00
2023-04-08T18:34:36.292Z,100.00
2023-04-08T18:37:04.196Z,100.00
2023-04-08T18:39:33.385Z,100.00
2023-04-08T18:42:01.189Z,100.00
2023-04-08T18:44:28.917Z,100.00
2023-04-08T18:46:57.442Z,100.00
2023-04-08T18:49:25.186Z,100.00
2023-04-08T18:52:02.001Z,100.00
2023-04-08T18:54:30.826Z,100.00
2023-04-08T18:56:59.853Z,100.00
2023-04-08T18:59:28.851Z,100.00
2023-04-08T19:01:56.825Z,100.00
2023-04-08T19:04:24.652Z,100.00
2023-04-08T19:06:53.015Z,100.00
2023-04-08T19:09:20.679Z,100.00
2023-04-08T19:11:49.785Z,100.00
2023-04-08T19:14:18.868Z,100.00
2023-04-08T19:16:46.624Z,100.00
2023-04-08T19:19:14.190Z,100.00
2023-04-08T19:21:41.832Z,100.00
2023-04-08T19:24:09.429Z,100.00
2023-04-08T19:26:37.192Z,100.00
2023-04-08T19:29:04.943Z,100.00
2023-04-08T19:31:34.065Z,100.00
2023-04-08T19:34:01.786Z,100.00
2023-04-08T19:36:29.444Z,100.00
2023-04-08T19:38:57.137Z,100.00
2023-04-08T19:41:24.817Z,100.00
2023-04-08T19:43:53.489Z,100.00
2023-04-08T19:46:21.326Z,100.00
2023-04-08T19:48:50.309Z,100.00
2023-04-08T19:51:22.305Z,100.00
2023-04-08T19:53:53.850Z,100.00
2023-04-08T19:56:21.529Z,100.00
2023-04-08T19:58:49.432Z,100.00
2023-04-08T20:01:17.572Z,100.00
2023-04-08T20:03:49.882Z,100.00
2023-04-08T20:06:19.736Z,100.00
2023-04-08T20:08:47.402Z,100.00
2023-04-08T20:11:14.944Z,100.00
2023-04-08T20:13:42.515Z,100.00
2023-04-08T20:16:10.175Z,100.00
2023-04-08T20:18:37.811Z,100.00
2023-04-08T20:21:07.113Z,100.00
2023-04-08T20:23:36.276Z,100.00
2023-04-08T20:26:03.847Z,100.00
2023-04-08T20:28:31.409Z,100.00
2023-04-08T20:30:59.043Z,100.00
2023-04-08T20:33:27.036Z,100.00
2023-04-08T20:35:54.748Z,100.00
2023-04-08T20:38:23.106Z,100.00
2023-04-08T20:40:51.996Z,100.00
2023-04-08T20:43:20.127Z,100.00
2023-04-08T20:45:48.284Z,100.00
2023-04-08T20:48:16.510Z,100.00
2023-04-08T20:50:44.993Z,100.00
2023-04-08T20:53:12.852Z,100.00
2023-04-08T20:55:43.751Z,100.00
